Time;durP1;ratioP1;P1;durP2;ratioP2;P2;SDS_P1;SDS_P2;PMS_P1;PMS_P2;Temp;Humidity;BMP_temperature;BMP_pressure;BME280_temperature;BME280_humidity;BME280_pressure;Samples;Min_cycle;Max_cycle;Signal;HPM_P1;HPM_P2
2021/09/20 00:00:36;;;;;;;;;;;17.70;99.90;;;;;;5072410;28;19919;-51
2021/09/20 00:03:40;;;;;;;;;;;17.70;99.90;;;;;;5071205;28;19939;-51
2021/09/20 00:06:44;;;;;;;;;;;17.60;99.90;;;;;;5071989;28;19916;-51
2021/09/20 00:09:48;;;;;;;;;;;17.50;99.90;;;;;;5072106;28;19928;-51
2021/09/20 00:12:52;;;;;;;;;;;17.40;99.90;;;;;;5071044;28;19920;-51
2021/09/20 00:15:56;;;;;;;;;;;17.40;99.90;;;;;;5071587;28;19943;-52
2021/09/20 00:19:00;;;;;;;;;;;17.40;99.90;;;;;;5072042;28;20294;-54
2021/09/20 00:22:04;;;;;;;;;;;17.40;99.90;;;;;;5070351;28;19913;-54
2021/09/20 00:25:09;;;;;;;;;;;17.40;99.90;;;;;;5071038;28;19919;-51
2021/09/20 00:28:13;;;;;;;;;;;17.40;99.90;;;;;;5071885;28;19919;-55
2021/09/20 00:31:17;;;;;;;;;;;17.40;99.90;;;;;;5070854;28;20393;-57
2021/09/20 00:34:21;;;;;;;;;;;17.40;99.90;;;;;;5068301;28;19943;-53
2021/09/20 00:37:25;;;;;;;;;;;17.40;99.90;;;;;;5060081;28;19928;-51
2021/09/20 00:40:28;;;;;;;;;;;17.50;99.90;;;;;;5071266;28;20394;-51
2021/09/20 00:43:33;;;;;;;;;;;17.50;99.90;;;;;;5070483;28;19916;-52
2021/09/20 00:46:37;;;;;;;;;;;17.50;99.90;;;;;;5071656;28;19923;-55
2021/09/20 00:49:42;;;;;;;;;;;17.60;99.90;;;;;;5070753;28;19923;-51
2021/09/20 00:52:46;;;;;;;;;;;17.60;99.90;;;;;;5070245;28;19916;-53
2021/09/20 00:55:50;;;;;;;;;;;17.60;99.90;;;;;;5071058;28;19923;-52
2021/09/20 00:58:55;;;;;;;;;;;17.50;99.90;;;;;;5071012;28;19916;-56
2021/09/20 01:01:59;;;;;;;;;;;17.60;99.90;;;;;;5070015;28;19918;-54
2021/09/20 01:05:04;;;;;;;;;;;17.60;99.90;;;;;;5070559;28;19912;-54
2021/09/20 01:08:08;;;;;;;;;;;17.60;99.90;;;;;;5070899;28;19923;-55
2021/09/20 01:11:12;;;;;;;;;;;17.70;99.90;;;;;;5065153;28;19922;-54
2021/09/20 01:14:16;;;;;;;;;;;17.70;99.90;;;;;;5070697;28;20302;-52
2021/09/20 01:17:20;;;;;;;;;;;17.80;99.90;;;;;;5070987;28;19928;-55
2021/09/20 01:20:24;;;;;;;;;;;17.80;99.90;;;;;;5069533;28;19924;-55
2021/09/20 01:23:28;;;;;;;;;;;17.80;99.90;;;;;;5070088;28;19912;-55
2021/09/20 01:26:32;;;;;;;;;;;17.90;99.90;;;;;;5071170;28;19935;-56
2021/09/20 01:29:36;;;;;;;;;;;17.90;99.90;;;;;;5069368;28;19919;-52
2021/09/20 01:32:40;;;;;;;;;;;17.80;99.90;;;;;;5069105;28;20230;-51
2021/09/20 01:35:45;;;;;;;;;;;17.80;99.90;;;;;;5070070;28;20358;-56
2021/09/20 01:38:49;;;;;;;;;;;17.70;99.90;;;;;;5069610;28;19928;-55
2021/09/20 01:41:54;;;;;;;;;;;17.70;99.90;;;;;;5069280;28;19935;-52
2021/09/20 01:44:58;;;;;;;;;;;17.70;99.90;;;;;;5050656;28;19923;-51
2021/09/20 01:48:02;;;;;;;;;;;17.80;99.90;;;;;;5068830;28;19923;-54
2021/09/20 01:51:06;;;;;;;;;;;17.90;99.90;;;;;;5069015;28;19912;-54
2021/09/20 01:54:11;;;;;;;;;;;17.90;99.90;;;;;;5070214;28;19923;-52
2021/09/20 01:57:17;;;;;;;;;;;17.90;99.90;;;;;;5070313;28;20447;-52
2021/09/20 02:00:21;;;;;;;;;;;17.70;99.90;;;;;;5056284;28;19919;-51
2021/09/20 02:03:25;;;;;;;;;;;17.50;99.90;;;;;;5069548;28;19923;-52
2021/09/20 02:06:29;;;;;;;;;;;17.30;99.90;;;;;;5070118;28;19919;-55
2021/09/20 02:09:33;;;;;;;;;;;17.30;99.90;;;;;;5068751;28;20386;-56
2021/09/20 02:12:37;;;;;;;;;;;17.30;99.90;;;;;;5069111;28;19923;-54
2021/09/20 02:15:41;;;;;;;;;;;16.70;99.90;;;;;;5070167;28;19928;-54
2021/09/20 02:18:45;;;;;;;;;;;16.60;99.90;;;;;;5068823;28;19923;-58
2021/09/20 02:21:49;;;;;;;;;;;16.60;99.90;;;;;;5069084;28;20286;-53
2021/09/20 02:24:53;;;;;;;;;;;16.60;99.90;;;;;;5070209;28;19935;-52
2021/09/20 02:27:57;;;;;;;;;;;16.70;99.90;;;;;;5069319;28;20294;-52
2021/09/20 02:31:03;;;;;;;;;;;16.70;99.90;;;;;;5068257;28;20425;-53
2021/09/20 02:34:06;;;;;;;;;;;16.60;99.90;;;;;;5069933;28;19939;-51
2021/09/20 02:37:12;;;;;;;;;;;16.60;99.90;;;;;;5069082;28;19924;-52
2021/09/20 02:40:15;;;;;;;;;;;16.70;99.90;;;;;;5068349;28;19919;-51
2021/09/20 02:43:20;;;;;;;;;;;16.80;99.90;;;;;;5069505;28;19927;-52
2021/09/20 02:46:24;;;;;;;;;;;16.80;99.90;;;;;;5067801;28;19939;-53
2021/09/20 02:49:28;;;;;;;;;;;16.90;99.90;;;;;;5068227;28;19913;-51
2021/09/20 02:52:32;;;;;;;;;;;16.90;99.90;;;;;;5069319;28;19919;-51
2021/09/20 02:55:36;;;;;;;;;;;17.00;99.90;;;;;;5069373;28;19936;-55
2021/09/20 02:58:40;;;;;;;;;;;16.90;99.90;;;;;;5068220;28;19939;-51
2021/09/20 03:01:44;;;;;;;;;;;16.90;99.90;;;;;;5068911;28;19924;-51
2021/09/20 03:04:48;;;;;;;;;;;17.00;99.90;;;;;;5069275;28;20303;-54
2021/09/20 03:07:52;;;;;;;;;;;17.10;99.90;;;;;;5068432;28;20407;-51
2021/09/20 03:10:56;;;;;;;;;;;17.10;99.90;;;;;;5067764;28;19924;-52
2021/09/20 03:14:00;;;;;;;;;;;16.30;99.90;;;;;;5069583;28;20294;-51
2021/09/20 03:17:04;;;;;;;;;;;16.20;99.90;;;;;;5068164;28;19935;-52
2021/09/20 03:20:09;;;;;;;;;;;16.20;99.90;;;;;;5067495;28;19927;-54
2021/09/20 03:23:13;;;;;;;;;;;16.30;99.90;;;;;;5069273;28;19924;-52
2021/09/20 03:26:17;;;;;;;;;;;16.20;99.90;;;;;;5068625;28;20393;-51
2021/09/20 03:29:21;;;;;;;;;;;16.30;99.90;;;;;;5068168;28;19940;-52
2021/09/20 03:32:25;;;;;;;;;;;16.40;99.90;;;;;;5069048;28;19920;-53
2021/09/20 03:35:29;;;;;;;;;;;16.30;99.90;;;;;;5068423;28;20409;-51
2021/09/20 03:38:33;;;;;;;;;;;16.20;99.90;;;;;;5068040;28;19931;-57
2021/09/20 03:41:38;;;;;;;;;;;16.20;99.90;;;;;;5068768;28;19920;-53
2021/09/20 03:44:43;;;;;;;;;;;16.20;99.90;;;;;;5068946;28;19917;-52
2021/09/20 03:47:49;;;;;;;;;;;16.30;99.90;;;;;;5067952;28;19916;-54
2021/09/20 03:50:53;;;;;;;;;;;16.40;99.90;;;;;;5068001;28;19943;-52
2021/09/20 03:53:57;;;;;;;;;;;16.40;99.90;;;;;;5069171;28;19920;-53
2021/09/20 03:57:01;;;;;;;;;;;16.50;99.90;;;;;;5067579;28;19927;-55
2021/09/20 04:00:05;;;;;;;;;;;16.50;99.90;;;;;;5072053;28;19920;-51
2021/09/20 04:03:09;;;;;;;;;;;16.60;99.90;;;;;;5072096;28;19923;-56
2021/09/20 04:06:13;;;;;;;;;;;16.80;99.90;;;;;;5071583;28;20299;-52
2021/09/20 04:09:18;;;;;;;;;;;16.70;99.90;;;;;;5071318;28;20393;-52
2021/09/20 04:12:22;;;;;;;;;;;16.40;99.90;;;;;;5071844;28;19923;-52
2021/09/20 04:15:25;;;;;;;;;;;16.20;99.90;;;;;;5058668;28;19936;-52
2021/09/20 04:18:30;;;;;;;;;;;16.30;99.90;;;;;;5070956;28;20302;-51
2021/09/20 04:21:34;;;;;;;;;;;16.10;99.90;;;;;;5071605;28;19919;-51
2021/09/20 04:24:39;;;;;;;;;;;16.10;99.90;;;;;;5071449;28;19924;-53
2021/09/20 04:27:43;;;;;;;;;;;16.00;99.90;;;;;;5070659;28;19923;-57
2021/09/20 04:30:47;;;;;;;;;;;16.00;99.90;;;;;;5071082;28;19936;-54
2021/09/20 04:33:52;;;;;;;;;;;16.00;99.90;;;;;;5071295;28;19916;-52
2021/09/20 04:36:56;;;;;;;;;;;16.10;99.90;;;;;;5070673;28;19912;-52
2021/09/20 04:40:01;;;;;;;;;;;16.10;99.90;;;;;;5071166;28;20397;-52
2021/09/20 04:43:05;;;;;;;;;;;16.10;99.90;;;;;;5071455;28;19920;-52
2021/09/20 04:46:09;;;;;;;;;;;16.20;99.90;;;;;;5058221;28;19924;-54
2021/09/20 04:49:13;;;;;;;;;;;16.30;99.90;;;;;;5071084;28;19944;-55
2021/09/20 04:52:17;;;;;;;;;;;16.30;99.90;;;;;;5071121;28;19935;-53
2021/09/20 04:55:21;;;;;;;;;;;16.30;99.90;;;;;;5070513;28;19923;-54
2021/09/20 04:58:25;;;;;;;;;;;16.40;99.90;;;;;;5070754;28;19923;-55
2021/09/20 05:01:29;;;;;;;;;;;16.50;99.90;;;;;;5071246;28;19920;-53
2021/09/20 05:04:33;;;;;;;;;;;16.60;99.90;;;;;;5058031;28;19912;-51
2021/09/20 05:07:37;;;;;;;;;;;16.60;99.90;;;;;;5070561;28;19920;-55
2021/09/20 05:10:41;;;;;;;;;;;16.30;99.90;;;;;;5071097;28;19920;-54
2021/09/20 05:13:45;;;;;;;;;;;16.10;99.90;;;;;;5070653;28;19923;-53
2021/09/20 05:16:50;;;;;;;;;;;16.10;99.90;;;;;;5070253;28;19928;-51
2021/09/20 05:19:54;;;;;;;;;;;16.10;99.90;;;;;;5070943;28;19916;-51
2021/09/20 05:22:58;;;;;;;;;;;16.20;99.90;;;;;;5059359;28;19919;-51
2021/09/20 05:26:03;;;;;;;;;;;16.30;99.90;;;;;;5060977;28;19912;-57
2021/09/20 05:29:08;;;;;;;;;;;16.40;99.90;;;;;;5071022;28;20401;-50
2021/09/20 05:32:12;;;;;;;;;;;16.50;99.90;;;;;;5051300;28;19912;-52
2021/09/20 05:35:16;;;;;;;;;;;16.60;99.90;;;;;;5063252;28;19920;-52
2021/09/20 05:38:20;;;;;;;;;;;16.60;99.90;;;;;;5057762;28;20302;-54
2021/09/20 05:41:24;;;;;;;;;;;16.60;99.90;;;;;;5070392;28;19943;-58
2021/09/20 05:44:28;;;;;;;;;;;16.60;99.90;;;;;;5069365;28;19924;-54
2021/09/20 05:47:32;;;;;;;;;;;16.70;99.90;;;;;;5069955;28;19919;-55
2021/09/20 05:50:36;;;;;;;;;;;16.90;99.90;;;;;;5070399;28;20398;-53
2021/09/20 05:53:40;;;;;;;;;;;17.10;99.90;;;;;;5056410;28;19927;-55
2021/09/20 05:56:44;;;;;;;;;;;17.10;99.90;;;;;;5068895;28;20155;-53
2021/09/20 05:59:48;;;;;;;;;;;17.10;99.90;;;;;;5070386;28;19923;-55
2021/09/20 06:02:52;;;;;;;;;;;16.30;99.90;;;;;;5054300;28;19913;-51
2021/09/20 06:05:55;;;;;;;;;;;16.10;99.90;;;;;;5055354;28;19935;-52
2021/09/20 06:08:59;;;;;;;;;;;16.00;99.90;;;;;;5054364;28;19919;-52
2021/09/20 06:12:04;;;;;;;;;;;16.20;99.90;;;;;;5059541;28;19924;-52
2021/09/20 06:15:08;;;;;;;;;;;16.40;99.90;;;;;;5058505;28;19920;-52
2021/09/20 06:18:12;;;;;;;;;;;16.60;99.90;;;;;;5057539;28;19947;-54
2021/09/20 06:21:16;;;;;;;;;;;16.70;99.90;;;;;;5057528;28;19934;-55
2021/09/20 06:24:22;;;;;;;;;;;16.90;99.90;;;;;;5058455;28;19939;-57
2021/09/20 06:27:29;;;;;;;;;;;17.00;99.90;;;;;;5056453;28;19920;-55
2021/09/20 06:30:32;;;;;;;;;;;17.40;99.90;;;;;;5054129;28;19920;-55
2021/09/20 06:33:36;;;;;;;;;;;17.70;99.90;;;;;;5062462;28;19924;-57
2021/09/20 06:36:41;;;;;;;;;;;18.10;99.90;;;;;;5051907;28;20417;-55
2021/09/20 06:39:45;;;;;;;;;;;18.40;99.90;;;;;;5057575;28;19924;-54
2021/09/20 06:42:49;;;;;;;;;;;18.90;99.90;;;;;;5052311;28;20307;-54
2021/09/20 06:45:53;;;;;;;;;;;19.50;99.90;;;;;;5068893;28;19919;-57
2021/09/20 06:48:58;;;;;;;;;;;19.90;99.90;;;;;;5069898;28;19987;-53
2021/09/20 06:52:02;;;;;;;;;;;18.60;99.90;;;;;;5067357;28;19919;-52
2021/09/20 06:55:07;;;;;;;;;;;17.40;99.90;;;;;;5061065;28;19920;-54
2021/09/20 06:58:11;;;;;;;;;;;17.30;99.90;;;;;;5052762;28;19928;-52
2021/09/20 07:01:15;;;;;;;;;;;17.20;99.90;;;;;;5051627;28;19913;-53
2021/09/20 07:04:19;;;;;;;;;;;17.40;99.90;;;;;;5057787;28;19912;-57
2021/09/20 07:07:23;;;;;;;;;;;18.00;99.90;;;;;;5069416;28;20292;-54
2021/09/20 07:10:29;;;;;;;;;;;18.80;99.90;;;;;;5065614;28;19940;-52
2021/09/20 07:13:32;;;;;;;;;;;20.20;99.90;;;;;;5067584;28;19920;-51
2021/09/20 07:16:37;;;;;;;;;;;21.20;99.90;;;;;;5054335;28;19924;-52
2021/09/20 07:19:41;;;;;;;;;;;23.00;99.90;;;;;;5059413;28;20375;-52
2021/09/20 07:22:47;;;;;;;;;;;23.70;99.90;;;;;;5060218;28;19946;-52
2021/09/20 07:25:51;;;;;;;;;;;24.00;99.90;;;;;;5050911;28;19919;-52
2021/09/20 07:28:55;;;;;;;;;;;22.90;99.90;;;;;;5037999;28;19913;-51
2021/09/20 07:31:59;;;;;;;;;;;22.10;99.90;;;;;;5068713;28;19916;-52
2021/09/20 07:35:03;;;;;;;;;;;22.20;99.90;;;;;;5068043;28;19916;-58
2021/09/20 07:38:07;;;;;;;;;;;22.60;99.90;;;;;;5056135;28;19924;-56
2021/09/20 07:41:12;;;;;;;;;;;23.10;99.90;;;;;;5069399;28;19923;-54
2021/09/20 07:44:15;;;;;;;;;;;22.70;99.90;;;;;;5072138;28;19920;-55
2021/09/20 07:47:19;;;;;;;;;;;23.40;99.90;;;;;;5058210;28;19945;-58
2021/09/20 07:50:25;;;;;;;;;;;23.40;99.90;;;;;;5060626;28;20546;-54
2021/09/20 07:53:29;;;;;;;;;;;23.00;99.90;;;;;;5056987;28;19927;-54
2021/09/20 07:56:33;;;;;;;;;;;22.40;99.90;;;;;;5054935;28;19966;-52
2021/09/20 07:59:37;;;;;;;;;;;23.20;99.90;;;;;;5055832;28;20413;-52
2021/09/20 08:02:41;;;;;;;;;;;23.50;99.90;;;;;;5055367;28;19916;-53
2021/09/20 08:05:45;;;;;;;;;;;23.30;99.90;;;;;;5053507;28;19920;-52
2021/09/20 08:08:50;;;;;;;;;;;24.40;99.90;;;;;;5056793;28;19920;-53
2021/09/20 08:11:54;;;;;;;;;;;24.50;99.90;;;;;;5055815;28;19924;-58
2021/09/20 08:14:58;;;;;;;;;;;24.40;99.90;;;;;;5054246;28;19924;-54
2021/09/20 08:18:03;;;;;;;;;;;26.70;99.90;;;;;;5055532;28;19917;-58
2021/09/20 08:21:07;;;;;;;;;;;29.20;97.20;;;;;;5055499;28;19924;-52
2021/09/20 08:24:12;;;;;;;;;;;30.90;94.00;;;;;;5055191;28;19924;-53
2021/09/20 08:27:16;;;;;;;;;;;32.60;92.00;;;;;;5052734;28;20279;-52
2021/09/20 08:30:20;;;;;;;;;;;33.30;89.80;;;;;;5060987;28;20387;-53
2021/09/20 08:33:26;;;;;;;;;;;32.40;88.00;;;;;;5058300;28;19931;-54
2021/09/20 08:36:30;;;;;;;;;;;32.20;89.10;;;;;;5052733;28;20271;-51
2021/09/20 08:39:34;;;;;;;;;;;34.10;83.70;;;;;;5059505;28;19928;-51
2021/09/20 08:42:38;;;;;;;;;;;35.20;81.70;;;;;;5064593;28;19916;-52
2021/09/20 08:45:42;;;;;;;;;;;30.70;87.20;;;;;;5054534;28;19944;-57
2021/09/20 08:48:47;;;;;;;;;;;31.20;87.90;;;;;;5062509;28;20568;-51
2021/09/20 08:51:54;;;;;;;;;;;33.60;87.00;;;;;;5063002;28;19912;-56
2021/09/20 08:54:58;;;;;;;;;;;37.00;80.40;;;;;;5055136;28;19924;-57
2021/09/20 08:58:03;;;;;;;;;;;36.50;77.40;;;;;;5052665;28;19924;-57
2021/09/20 09:01:07;;;;;;;;;;;35.30;75.40;;;;;;5055030;28;19990;-57
2021/09/20 09:04:21;;;;;;;;;;;34.00;76.30;;;;;;5064675;28;20306;-58
2021/09/20 09:07:25;;;;;;;;;;;33.50;77.20;;;;;;5060669;28;19931;-56
2021/09/20 09:10:31;;;;;;;;;;;33.00;76.50;;;;;;5053345;28;20287;-54
2021/09/20 09:13:46;;;;;;;;;;;36.70;73.70;;;;;;5055604;28;19919;-56
2021/09/20 09:16:51;;;;;;;;;;;39.00;70.80;;;;;;5061432;28;19919;-57
2021/09/20 09:19:56;;;;;;;;;;;39.50;68.70;;;;;;5061334;28;19928;-57
2021/09/20 09:23:02;;;;;;;;;;;41.40;66.30;;;;;;5056589;28;19924;-55
2021/09/20 09:26:19;;;;;;;;;;;43.10;62.50;;;;;;5049885;28;19959;-58
2021/09/20 09:29:23;;;;;;;;;;;39.70;63.90;;;;;;5056691;28;19927;-55
2021/09/20 09:32:27;;;;;;;;;;;38.60;65.40;;;;;;5056245;28;19924;-57
2021/09/20 09:35:32;;;;;;;;;;;39.70;64.10;;;;;;5070722;28;19951;-58
2021/09/20 09:38:35;;;;;;;;;;;38.60;63.90;;;;;;5067195;28;19931;-54
2021/09/20 09:41:41;;;;;;;;;;;38.10;66.20;;;;;;5060267;28;19920;-57
2021/09/20 09:44:45;;;;;;;;;;;40.00;64.40;;;;;;5062958;28;19920;-53
2021/09/20 09:47:50;;;;;;;;;;;36.30;65.60;;;;;;5054214;28;20103;-52
2021/09/20 09:50:55;;;;;;;;;;;33.50;68.90;;;;;;5071648;28;19935;-52
2021/09/20 09:54:06;;;;;;;;;;;29.90;73.10;;;;;;5059488;28;19919;-53
2021/09/20 09:57:13;;;;;;;;;;;30.90;75.10;;;;;;5059161;28;20509;-57
2021/09/20 10:00:19;;;;;;;;;;;29.90;74.40;;;;;;5053054;28;19932;-57
2021/09/20 10:03:22;;;;;;;;;;;32.70;73.80;;;;;;5053844;28;19921;-57
2021/09/20 10:06:26;;;;;;;;;;;33.30;72.40;;;;;;5057901;28;19916;-52
2021/09/20 10:09:30;;;;;;;;;;;32.20;72.00;;;;;;5055368;28;19920;-57
2021/09/20 10:12:34;;;;;;;;;;;36.60;69.50;;;;;;5064676;28;19923;-56
2021/09/20 10:15:38;;;;;;;;;;;38.50;65.50;;;;;;5068116;28;19924;-53
2021/09/20 10:18:42;;;;;;;;;;;40.50;64.80;;;;;;5068004;28;19923;-56
2021/09/20 10:21:48;;;;;;;;;;;42.80;61.90;;;;;;5066109;28;19943;-53
2021/09/20 10:24:53;;;;;;;;;;;44.70;59.70;;;;;;5056137;28;19921;-56
2021/09/20 10:27:58;;;;;;;;;;;45.80;57.60;;;;;;5050618;28;19913;-55
2021/09/20 10:31:02;;;;;;;;;;;46.40;56.60;;;;;;5063144;28;19924;-54
2021/09/20 10:34:32;;;;;;;;;;;45.90;54.60;;;;;;5052204;28;19947;-56
2021/09/20 10:37:36;;;;;;;;;;;44.10;55.90;;;;;;5041449;28;19919;-52
2021/09/20 10:40:40;;;;;;;;;;;44.40;56.30;;;;;;5056730;28;19932;-54
2021/09/20 10:44:05;;;;;;;;;;;44.70;56.20;;;;;;5057326;28;19927;-56
2021/09/20 10:47:16;;;;;;;;;;;42.10;57.60;;;;;;5059622;28;19935;-52
2021/09/20 10:50:40;;;;;;;;;;;38.70;60.60;;;;;;5057469;28;19921;-54
2021/09/20 10:53:44;;;;;;;;;;;35.60;63.60;;;;;;5062343;28;19936;-55
2021/09/20 10:56:50;;;;;;;;;;;33.00;67.80;;;;;;5050188;28;19931;-55
2021/09/20 11:00:12;;;;;;;;;;;31.20;75.00;;;;;;5053840;28;19944;-52
2021/09/20 11:03:35;;;;;;;;;;;30.00;78.70;;;;;;5049445;28;19920;-54
2021/09/20 11:06:39;;;;;;;;;;;28.80;83.30;;;;;;5054931;28;19920;-53
2021/09/20 11:09:46;;;;;;;;;;;27.80;89.90;;;;;;5054286;28;19920;-54
2021/09/20 11:12:58;;;;;;;;;;;27.20;91.60;;;;;;5052957;28;20418;-52
2021/09/20 11:16:02;;;;;;;;;;;26.80;91.60;;;;;;5067841;28;20302;-53
2021/09/20 11:19:28;;;;;;;;;;;26.70;93.20;;;;;;5073134;28;19923;-54
2021/09/20 11:22:33;;;;;;;;;;;26.90;95.20;;;;;;5061050;28;19924;-53
2021/09/20 11:25:36;;;;;;;;;;;27.70;94.60;;;;;;5059657;28;19920;-56
2021/09/20 11:28:42;;;;;;;;;;;29.20;94.00;;;;;;5061164;28;19916;-53
2021/09/20 11:31:46;;;;;;;;;;;31.10;86.70;;;;;;5072152;28;19940;-55
2021/09/20 11:34:55;;;;;;;;;;;30.60;86.40;;;;;;5070685;28;20298;-54
2021/09/20 11:38:04;;;;;;;;;;;31.70;86.20;;;;;;5068377;28;19928;-56
2021/09/20 11:41:26;;;;;;;;;;;31.40;81.90;;;;;;5060077;28;19916;-53
2021/09/20 11:44:30;;;;;;;;;;;30.40;85.00;;;;;;5054117;28;19923;-53
2021/09/20 11:47:36;;;;;;;;;;;31.20;85.90;;;;;;5069127;28;19919;-56
2021/09/20 11:50:42;;;;;;;;;;;30.80;83.10;;;;;;5067932;28;19991;-56
2021/09/20 11:53:47;;;;;;;;;;;29.80;82.40;;;;;;5059012;28;19932;-57
2021/09/20 11:56:52;;;;;;;;;;;28.20;85.80;;;;;;5056100;28;19917;-57
2021/09/20 12:00:00;;;;;;;;;;;26.90;89.70;;;;;;5054247;28;19924;-55
2021/09/20 12:03:08;;;;;;;;;;;26.50;90.90;;;;;;5055608;28;19923;-54
2021/09/20 12:06:12;;;;;;;;;;;26.40;91.70;;;;;;5068909;28;20378;-57
2021/09/20 12:09:16;;;;;;;;;;;26.10;91.80;;;;;;5063618;28;19919;-53
2021/09/20 12:12:24;;;;;;;;;;;25.90;92.70;;;;;;5071773;28;19921;-53
2021/09/20 12:15:30;;;;;;;;;;;25.80;93.10;;;;;;5060045;28;19920;-52
2021/09/20 12:18:34;;;;;;;;;;;25.50;92.20;;;;;;5057332;28;19924;-55
2021/09/20 12:21:39;;;;;;;;;;;25.10;93.70;;;;;;5042501;28;19943;-53
2021/09/20 12:24:43;;;;;;;;;;;24.70;95.60;;;;;;5052026;28;19920;-51
2021/09/20 12:27:48;;;;;;;;;;;24.40;96.30;;;;;;5067657;28;19920;-52
2021/09/20 12:30:53;;;;;;;;;;;24.10;97.80;;;;;;5064977;28;19920;-56
2021/09/20 12:34:02;;;;;;;;;;;23.70;97.80;;;;;;5067672;28;20327;-52
2021/09/20 12:37:07;;;;;;;;;;;23.40;99.90;;;;;;5070668;28;20433;-53
2021/09/20 12:40:18;;;;;;;;;;;22.90;99.90;;;;;;5063354;28;19935;-54
2021/09/20 12:43:30;;;;;;;;;;;22.40;99.90;;;;;;5059456;28;19943;-53
2021/09/20 12:46:36;;;;;;;;;;;21.80;99.90;;;;;;5053647;28;20260;-55
2021/09/20 12:49:42;;;;;;;;;;;21.30;99.90;;;;;;5063392;28;19912;-54
2021/09/20 12:52:49;;;;;;;;;;;20.90;99.90;;;;;;5071033;28;19916;-56
2021/09/20 12:55:54;;;;;;;;;;;20.50;99.90;;;;;;5071986;28;19943;-57
2021/09/20 12:59:18;;;;;;;;;;;19.80;99.90;;;;;;5058039;28;19916;-59
2021/09/20 13:02:22;;;;;;;;;;;19.20;99.90;;;;;;5055685;28;19928;-57
2021/09/20 13:05:26;;;;;;;;;;;18.80;99.90;;;;;;5053445;28;20421;-59
2021/09/20 13:08:30;;;;;;;;;;;18.70;99.90;;;;;;5058161;28;20821;-56
2021/09/20 13:11:38;;;;;;;;;;;18.60;99.90;;;;;;5061385;28;19927;-53
2021/09/20 13:14:48;;;;;;;;;;;18.60;99.90;;;;;;5056586;28;19913;-57
2021/09/20 13:17:53;;;;;;;;;;;18.70;99.90;;;;;;5055751;28;19953;-54
2021/09/20 13:20:57;;;;;;;;;;;18.90;99.90;;;;;;5061164;28;19916;-53
2021/09/20 13:24:01;;;;;;;;;;;19.30;99.90;;;;;;5063743;28;20406;-56
2021/09/20 13:27:15;;;;;;;;;;;19.60;99.90;;;;;;5066067;28;19936;-56
2021/09/20 13:30:19;;;;;;;;;;;20.10;99.90;;;;;;5060130;28;20406;-52
2021/09/20 13:33:24;;;;;;;;;;;20.40;99.90;;;;;;5067394;28;19924;-53
2021/09/20 13:36:28;;;;;;;;;;;20.60;99.90;;;;;;5070465;28;19920;-54
2021/09/20 13:39:32;;;;;;;;;;;20.70;99.90;;;;;;5069285;28;19943;-55
2021/09/20 13:42:36;;;;;;;;;;;20.80;99.90;;;;;;5069758;28;19919;-59
2021/09/20 13:45:40;;;;;;;;;;;20.90;99.90;;;;;;5070449;28;19932;-53
2021/09/20 13:48:45;;;;;;;;;;;20.90;99.90;;;;;;5069082;28;19924;-56
2021/09/20 13:51:49;;;;;;;;;;;20.70;99.90;;;;;;5068816;28;19939;-56
2021/09/20 13:54:53;;;;;;;;;;;20.60;99.90;;;;;;5045341;28;19919;-55
2021/09/20 13:58:01;;;;;;;;;;;20.40;99.90;;;;;;5054407;28;19913;-56
2021/09/20 14:01:04;;;;;;;;;;;20.10;99.90;;;;;;5052635;28;19923;-54
2021/09/20 14:04:11;;;;;;;;;;;20.00;99.90;;;;;;5058028;28;19919;-52
2021/09/20 14:07:15;;;;;;;;;;;20.00;99.90;;;;;;5067750;28;19919;-52
2021/09/20 14:10:20;;;;;;;;;;;20.10;99.90;;;;;;5053491;28;20192;-55
2021/09/20 14:13:26;;;;;;;;;;;20.40;99.90;;;;;;5069113;28;19920;-54
2021/09/20 14:16:31;;;;;;;;;;;21.20;99.90;;;;;;5060513;28;19919;-53
2021/09/20 14:19:35;;;;;;;;;;;22.10;99.90;;;;;;5065384;28;19917;-54
2021/09/20 14:22:39;;;;;;;;;;;22.60;99.90;;;;;;5055026;28;19943;-57
2021/09/20 14:25:44;;;;;;;;;;;23.10;99.90;;;;;;5050339;28;19935;-57
2021/09/20 14:28:47;;;;;;;;;;;23.40;99.90;;;;;;5064238;28;19926;-54
2021/09/20 14:31:52;;;;;;;;;;;23.30;99.90;;;;;;5065561;28;19920;-55
2021/09/20 14:34:56;;;;;;;;;;;23.00;99.90;;;;;;5052800;28;20314;-57
2021/09/20 14:38:00;;;;;;;;;;;22.80;99.90;;;;;;5051918;28;20294;-55
2021/09/20 14:41:04;;;;;;;;;;;22.40;99.90;;;;;;5055499;28;20383;-54
2021/09/20 14:44:07;;;;;;;;;;;22.30;99.90;;;;;;5069779;28;19939;-55
2021/09/20 14:47:12;;;;;;;;;;;22.30;99.90;;;;;;5065348;28;19919;-52
2021/09/20 14:50:20;;;;;;;;;;;22.10;99.90;;;;;;5047938;28;19912;-57
2021/09/20 14:53:24;;;;;;;;;;;21.90;99.90;;;;;;5063449;28;19920;-52
2021/09/20 14:56:28;;;;;;;;;;;21.80;99.90;;;;;;5067020;28;19923;-53
2021/09/20 14:59:33;;;;;;;;;;;21.70;99.90;;;;;;5064764;28;19924;-58
2021/09/20 15:02:38;;;;;;;;;;;21.70;99.90;;;;;;5056928;28;20315;-56
2021/09/20 15:05:43;;;;;;;;;;;21.80;99.90;;;;;;5064482;28;20421;-52
2021/09/20 15:08:47;;;;;;;;;;;21.80;99.90;;;;;;5061329;28;20290;-53
2021/09/20 15:11:51;;;;;;;;;;;21.80;99.90;;;;;;5051551;28;19939;-53
2021/09/20 15:14:55;;;;;;;;;;;21.90;99.90;;;;;;5069557;28;19920;-54
2021/09/20 15:18:00;;;;;;;;;;;22.00;99.90;;;;;;5068210;28;19947;-53
2021/09/20 15:21:06;;;;;;;;;;;21.90;99.90;;;;;;5068543;28;19923;-54
2021/09/20 15:24:10;;;;;;;;;;;21.90;99.90;;;;;;5045638;28;19944;-58
2021/09/20 15:27:14;;;;;;;;;;;22.10;99.90;;;;;;5055874;28;19924;-53
2021/09/20 15:30:19;;;;;;;;;;;22.10;99.90;;;;;;5055400;28;19923;-54
2021/09/20 15:33:24;;;;;;;;;;;22.10;99.90;;;;;;5069141;28;19917;-53
2021/09/20 15:36:28;;;;;;;;;;;22.20;99.90;;;;;;5068798;28;20326;-52
2021/09/20 15:39:32;;;;;;;;;;;22.20;99.90;;;;;;5067799;28;19987;-53
2021/09/20 15:43:02;;;;;;;;;;;22.00;99.90;;;;;;5068953;28;19920;-53
2021/09/20 15:46:06;;;;;;;;;;;21.90;99.90;;;;;;5069220;28;19919;-56
2021/09/20 15:49:10;;;;;;;;;;;21.80;99.90;;;;;;5068202;28;19924;-53
2021/09/20 15:52:14;;;;;;;;;;;21.60;99.90;;;;;;5068698;28;19923;-53
2021/09/20 15:55:18;;;;;;;;;;;21.40;99.90;;;;;;5072942;28;20290;-53
2021/09/20 15:58:22;;;;;;;;;;;21.20;99.90;;;;;;5058933;28;19923;-53
2021/09/20 16:01:26;;;;;;;;;;;21.00;99.90;;;;;;5071921;28;19943;-55
2021/09/20 16:04:31;;;;;;;;;;;20.90;99.90;;;;;;5060542;28;19947;-52
2021/09/20 16:07:36;;;;;;;;;;;20.80;99.90;;;;;;5071670;28;19919;-53
2021/09/20 16:10:40;;;;;;;;;;;20.70;99.90;;;;;;5071651;28;19935;-55
2021/09/20 16:13:45;;;;;;;;;;;20.70;99.90;;;;;;5072819;28;19923;-53
2021/09/20 16:16:49;;;;;;;;;;;20.70;99.90;;;;;;5068406;28;19924;-53
2021/09/20 16:19:53;;;;;;;;;;;20.70;99.90;;;;;;5071156;28;19924;-54
2021/09/20 16:22:57;;;;;;;;;;;20.60;99.90;;;;;;5072923;28;20291;-55
2021/09/20 16:26:01;;;;;;;;;;;20.50;99.90;;;;;;5059211;28;20405;-53
2021/09/20 16:29:05;;;;;;;;;;;20.30;99.90;;;;;;5071373;28;19915;-56
2021/09/20 16:32:11;;;;;;;;;;;20.10;99.90;;;;;;5071722;28;19919;-54
2021/09/20 16:35:16;;;;;;;;;;;20.00;99.90;;;;;;5052255;28;19924;-53
2021/09/20 16:38:21;;;;;;;;;;;19.90;99.90;;;;;;5065681;28;19919;-53
2021/09/20 16:41:25;;;;;;;;;;;19.80;99.90;;;;;;5071311;28;19920;-53
2021/09/20 16:44:29;;;;;;;;;;;19.80;99.90;;;;;;5072190;28;19920;-58
2021/09/20 16:47:33;;;;;;;;;;;19.90;99.90;;;;;;5071062;28;19920;-53
2021/09/20 16:50:37;;;;;;;;;;;19.90;99.90;;;;;;5071090;28;20106;-54
2021/09/20 16:53:41;;;;;;;;;;;19.90;99.90;;;;;;5072118;28;20294;-55
2021/09/20 16:56:45;;;;;;;;;;;19.90;99.90;;;;;;5071205;28;20386;-58
2021/09/20 16:59:49;;;;;;;;;;;19.90;99.90;;;;;;5070492;28;19924;-55
2021/09/20 17:02:53;;;;;;;;;;;19.70;99.90;;;;;;5071395;28;19919;-56
2021/09/20 17:05:58;;;;;;;;;;;19.70;99.90;;;;;;5070363;28;19919;-56
2021/09/20 17:09:01;;;;;;;;;;;19.70;99.90;;;;;;5070473;28;20070;-55
2021/09/20 17:12:05;;;;;;;;;;;19.60;99.90;;;;;;5070873;28;20291;-56
2021/09/20 17:15:12;;;;;;;;;;;19.50;99.90;;;;;;5070976;28;19919;-53
2021/09/20 17:18:16;;;;;;;;;;;19.40;99.90;;;;;;5070052;28;19920;-56
2021/09/20 17:21:21;;;;;;;;;;;19.40;99.90;;;;;;5071040;28;19932;-54
2021/09/20 17:24:24;;;;;;;;;;;19.30;99.90;;;;;;5070945;28;19919;-54
2021/09/20 17:27:28;;;;;;;;;;;19.30;99.90;;;;;;5070387;28;19919;-53
2021/09/20 17:30:33;;;;;;;;;;;19.20;99.90;;;;;;5070195;28;19924;-54
2021/09/20 17:33:37;;;;;;;;;;;19.20;99.90;;;;;;5070797;28;19923;-53
2021/09/20 17:36:43;;;;;;;;;;;19.30;99.90;;;;;;5069568;28;20398;-53
2021/09/20 17:39:47;;;;;;;;;;;19.20;99.90;;;;;;5070268;28;20373;-52
2021/09/20 17:42:51;;;;;;;;;;;19.00;99.90;;;;;;5058090;28;19921;-57
2021/09/20 17:45:55;;;;;;;;;;;19.00;99.90;;;;;;5069686;28;19931;-53
2021/09/20 17:49:00;;;;;;;;;;;18.80;99.90;;;;;;5057031;28;19919;-54
2021/09/20 17:52:05;;;;;;;;;;;18.80;99.90;;;;;;5070218;28;19915;-54
2021/09/20 17:55:10;;;;;;;;;;;18.80;99.90;;;;;;5069304;28;19912;-52